EGHE/ISC METAR and TAF weather

Enter ICAO airport designator
Station Type Date Time Source
EGHE METAR 2020/02/22 07:20 UTC NOAA

EGHE 220720Z 23027KT 1400 -DZ BR BKN003 11/10


Station Type Date Time Source
EGHE Decoded METAR 2020/02/22 07:20 UTC NOAA

Scilly, Saint Mary'S, United Kingdom (EGHE) 49-55N 006-18W 0M
Feb 22, 2020 - 02:20 AM EST / 2020.02.22 0720 UTC
Wind: from the SW (230 degrees) at 31 MPH (27 KT):0
Visibility: less than 1 mile:0
Sky conditions: mostly cloudy
Weather: light drizzle; mist
Temperature: 51 F (11 C)
Dew Point: 50 F (10 C)
Relative Humidity: 93%
Pressure (altimeter): 30.12 in. Hg (1020 hPa)
ob: EGHE 220720Z 23027KT 1400 -DZ BR BKN003 11/10 Q1020
cycle: 7

Station Type Date Time Source
EGHE TAF UTC NOAA

Error!

Example: see airport list